sensor_id;sensor_type;location;lat;lon;timestamp;temperature;humidity
75281;HTU21D;63874;47.230;39.620;2023-05-10T00:02:11;7.69;80.79
75281;HTU21D;63874;47.230;39.620;2023-05-10T00:04:37;7.69;80.88
75281;HTU21D;63874;47.230;39.620;2023-05-10T00:07:03;7.67;81.01
75281;HTU21D;63874;47.230;39.620;2023-05-10T00:09:29;7.63;81.13
75281;HTU21D;63874;47.230;39.620;2023-05-10T00:11:55;7.63;81.20
75281;HTU21D;63874;47.230;39.620;2023-05-10T00:14:20;7.64;81.29
75281;HTU21D;63874;47.230;39.620;2023-05-10T00:16:46;7.62;81.35
75281;HTU21D;63874;47.230;39.620;2023-05-10T00:19:12;7.60;81.45
75281;HTU21D;63874;47.230;39.620;2023-05-10T00:21:38;7.55;81.53
75281;HTU21D;63874;47.230;39.620;2023-05-10T00:24:04;7.55;81.87
75281;HTU21D;63874;47.230;39.620;2023-05-10T00:26:30;7.49;81.84
75281;HTU21D;63874;47.230;39.620;2023-05-10T00:28:55;7.48;82.03
75281;HTU21D;63874;47.230;39.620;2023-05-10T00:31:22;7.41;82.20
75281;HTU21D;63874;47.230;39.620;2023-05-10T00:33:49;7.40;82.56
75281;HTU21D;63874;47.230;39.620;2023-05-10T00:36:15;7.37;82.50
75281;HTU21D;63874;47.230;39.620;2023-05-10T00:38:41;7.30;82.77
75281;HTU21D;63874;47.230;39.620;2023-05-10T00:41:07;7.31;82.93
75281;HTU21D;63874;47.230;39.620;2023-05-10T00:43:35;7.31;83.22
75281;HTU21D;63874;47.230;39.620;2023-05-10T00:46:03;7.27;83.25
75281;HTU21D;63874;47.230;39.620;2023-05-10T00:48:30;7.22;83.29
75281;HTU21D;63874;47.230;39.620;2023-05-10T00:50:55;7.23;83.36
75281;HTU21D;63874;47.230;39.620;2023-05-10T00:53:21;7.24;83.70
75281;HTU21D;63874;47.230;39.620;2023-05-10T00:55:47;7.22;83.90
75281;HTU21D;63874;47.230;39.620;2023-05-10T00:58:14;7.19;84.11
75281;HTU21D;63874;47.230;39.620;2023-05-10T01:00:41;7.18;84.40
75281;HTU21D;63874;47.230;39.620;2023-05-10T01:03:07;7.16;84.37
75281;HTU21D;63874;47.230;39.620;2023-05-10T01:05:33;7.15;84.40
75281;HTU21D;63874;47.230;39.620;2023-05-10T01:07:59;7.12;84.51
75281;HTU21D;63874;47.230;39.620;2023-05-10T01:10:25;7.10;84.58
75281;HTU21D;63874;47.230;39.620;2023-05-10T01:12:51;7.09;84.72
75281;HTU21D;63874;47.230;39.620;2023-05-10T01:15:17;7.11;85.10
75281;HTU21D;63874;47.230;39.620;2023-05-10T01:17:45;7.04;85.11
75281;HTU21D;63874;47.230;39.620;2023-05-10T01:20:13;7.01;85.00
75281;HTU21D;63874;47.230;39.620;2023-05-10T01:30:55;7.03;85.43
75281;HTU21D;63874;47.230;39.620;2023-05-10T01:36:22;6.98;85.71
75281;HTU21D;63874;47.230;39.620;2023-05-10T01:41:49;6.89;85.80
75281;HTU21D;63874;47.230;39.620;2023-05-10T01:44:24;6.95;85.89
75281;HTU21D;63874;47.230;39.620;2023-05-10T01:47:02;6.95;85.96
75281;HTU21D;63874;47.230;39.620;2023-05-10T01:49:33;6.95;86.09
75281;HTU21D;63874;47.230;39.620;2023-05-10T01:52:07;6.94;85.95
75281;HTU21D;63874;47.230;39.620;2023-05-10T01:54:35;6.95;86.09
75281;HTU21D;63874;47.230;39.620;2023-05-10T01:57:05;6.93;86.05
75281;HTU21D;63874;47.230;39.620;2023-05-10T01:59:35;6.94;86.09
75281;HTU21D;63874;47.230;39.620;2023-05-10T02:02:05;6.95;86.19
75281;HTU21D;63874;47.230;39.620;2023-05-10T02:04:33;6.98;86.53
75281;HTU21D;63874;47.230;39.620;2023-05-10T02:07:00;6.99;86.39
75281;HTU21D;63874;47.230;39.620;2023-05-10T02:09:27;6.96;86.41
75281;HTU21D;63874;47.230;39.620;2023-05-10T02:11:55;6.96;86.43
75281;HTU21D;63874;47.230;39.620;2023-05-10T02:14:24;7.00;86.86
75281;HTU21D;63874;47.230;39.620;2023-05-10T02:16:53;6.98;86.54
75281;HTU21D;63874;47.230;39.620;2023-05-10T02:19:22;6.96;86.71
75281;HTU21D;63874;47.230;39.620;2023-05-10T02:21:49;6.96;86.70
75281;HTU21D;63874;47.230;39.620;2023-05-10T02:24:17;6.98;86.82
75281;HTU21D;63874;47.230;39.620;2023-05-10T02:26:45;7.00;87.04
75281;HTU21D;63874;47.230;39.620;2023-05-10T02:29:14;6.99;86.96
75281;HTU21D;63874;47.230;39.620;2023-05-10T02:31:41;7.00;86.98
75281;HTU21D;63874;47.230;39.620;2023-05-10T02:34:10;6.96;86.96
75281;HTU21D;63874;47.230;39.620;2023-05-10T02:36:38;6.95;86.96
75281;HTU21D;63874;47.230;39.620;2023-05-10T02:39:04;6.98;87.20
75281;HTU21D;63874;47.230;39.620;2023-05-10T02:41:36;6.97;87.19
75281;HTU21D;63874;47.230;39.620;2023-05-10T02:44:02;6.99;87.26
75281;HTU21D;63874;47.230;39.620;2023-05-10T02:46:30;6.99;87.30
75281;HTU21D;63874;47.230;39.620;2023-05-10T02:48:56;6.98;87.32
75281;HTU21D;63874;47.230;39.620;2023-05-10T02:51:25;7.02;87.58
75281;HTU21D;63874;47.230;39.620;2023-05-10T02:53:53;7.00;87.50
75281;HTU21D;63874;47.230;39.620;2023-05-10T02:56:34;7.00;87.42
75281;HTU21D;63874;47.230;39.620;2023-05-10T02:59:01;7.04;87.67
75281;HTU21D;63874;47.230;39.620;2023-05-10T03:01:27;7.03;87.66
75281;HTU21D;63874;47.230;39.620;2023-05-10T03:03:53;7.02;87.60
75281;HTU21D;63874;47.230;39.620;2023-05-10T03:06:19;7.05;87.66
75281;HTU21D;63874;47.230;39.620;2023-05-10T03:08:45;7.05;87.59
75281;HTU21D;63874;47.230;39.620;2023-05-10T03:14:16;7.09;87.56
75281;HTU21D;63874;47.230;39.620;2023-05-10T03:16:48;7.07;87.67
75281;HTU21D;63874;47.230;39.620;2023-05-10T03:19:24;7.09;87.73
75281;HTU21D;63874;47.230;39.620;2023-05-10T03:21:53;7.10;87.78
75281;HTU21D;63874;47.230;39.620;2023-05-10T03:24:22;7.12;87.79
75281;HTU21D;63874;47.230;39.620;2023-05-10T03:26:49;7.12;87.77
75281;HTU21D;63874;47.230;39.620;2023-05-10T03:29:17;7.15;87.81
75281;HTU21D;63874;47.230;39.620;2023-05-10T03:31:43;7.16;87.95
75281;HTU21D;63874;47.230;39.620;2023-05-10T03:34:09;7.18;87.99
75281;HTU21D;63874;47.230;39.620;2023-05-10T03:36:34;7.18;87.86
75281;HTU21D;63874;47.230;39.620;2023-05-10T03:39:01;7.23;87.96
75281;HTU21D;63874;47.230;39.620;2023-05-10T03:41:27;7.24;87.97
75281;HTU21D;63874;47.230;39.620;2023-05-10T03:43:53;7.24;87.91
75281;HTU21D;63874;47.230;39.620;2023-05-10T03:46:19;7.27;87.99
75281;HTU21D;63874;47.230;39.620;2023-05-10T03:48:45;7.27;87.95
75281;HTU21D;63874;47.230;39.620;2023-05-10T03:51:11;7.26;87.95
75281;HTU21D;63874;47.230;39.620;2023-05-10T03:53:38;7.31;88.01
75281;HTU21D;63874;47.230;39.620;2023-05-10T03:56:04;7.30;87.96
75281;HTU21D;63874;47.230;39.620;2023-05-10T03:58:30;7.33;88.03
75281;HTU21D;63874;47.230;39.620;2023-05-10T04:00:57;7.37;87.93
75281;HTU21D;63874;47.230;39.620;2023-05-10T04:03:23;7.38;87.89
75281;HTU21D;63874;47.230;39.620;2023-05-10T04:05:59;7.35;87.73
75281;HTU21D;63874;47.230;39.620;2023-05-10T04:08:26;7.37;87.76
75281;HTU21D;63874;47.230;39.620;2023-05-10T04:10:52;7.34;87.84
75281;HTU21D;63874;47.230;39.620;2023-05-10T04:13:18;7.33;87.83
75281;HTU21D;63874;47.230;39.620;2023-05-10T04:15:44;7.34;87.82
75281;HTU21D;63874;47.230;39.620;2023-05-10T04:18:10;7.38;87.84
75281;HTU21D;63874;47.230;39.620;2023-05-10T04:20:36;7.43;87.84
75281;HTU21D;63874;47.230;39.620;2023-05-10T04:23:02;7.40;87.70
75281;HTU21D;63874;47.230;39.620;2023-05-10T04:25:27;7.37;87.83
75281;HTU21D;63874;47.230;39.620;2023-05-10T04:27:53;7.37;87.89
75281;HTU21D;63874;47.230;39.620;2023-05-10T04:30:19;7.37;87.83
75281;HTU21D;63874;47.230;39.620;2023-05-10T04:32:45;7.38;87.93
75281;HTU21D;63874;47.230;39.620;2023-05-10T04:35:11;7.39;87.97
75281;HTU21D;63874;47.230;39.620;2023-05-10T04:37:36;7.41;88.04
75281;HTU21D;63874;47.230;39.620;2023-05-10T04:40:03;7.47;87.98
75281;HTU21D;63874;47.230;39.620;2023-05-10T04:42:29;7.48;87.83
75281;HTU21D;63874;47.230;39.620;2023-05-10T04:44:55;7.50;87.76
75281;HTU21D;63874;47.230;39.620;2023-05-10T04:47:21;7.56;87.68
75281;HTU21D;63874;47.230;39.620;2023-05-10T04:49:46;7.57;87.67
75281;HTU21D;63874;47.230;39.620;2023-05-10T04:52:12;7.59;87.42
75281;HTU21D;63874;47.230;39.620;2023-05-10T04:54:39;7.61;87.34
75281;HTU21D;63874;47.230;39.620;2023-05-10T04:57:05;7.63;87.24
75281;HTU21D;63874;47.230;39.620;2023-05-10T04:59:30;7.64;87.12
75281;HTU21D;63874;47.230;39.620;2023-05-10T05:01:56;7.64;87.11
75281;HTU21D;63874;47.230;39.620;2023-05-10T05:04:22;7.63;87.08
75281;HTU21D;63874;47.230;39.620;2023-05-10T05:06:49;7.63;87.04
75281;HTU21D;63874;47.230;39.620;2023-05-10T05:09:15;7.68;87.06
75281;HTU21D;63874;47.230;39.620;2023-05-10T05:11:41;7.69;86.90
75281;HTU21D;63874;47.230;39.620;2023-05-10T05:14:07;7.69;86.90
75281;HTU21D;63874;47.230;39.620;2023-05-10T05:16:33;7.72;86.96
75281;HTU21D;63874;47.230;39.620;2023-05-10T05:18:59;7.76;86.83
75281;HTU21D;63874;47.230;39.620;2023-05-10T05:21:26;7.81;86.89
75281;HTU21D;63874;47.230;39.620;2023-05-10T05:23:52;7.82;86.72
75281;HTU21D;63874;47.230;39.620;2023-05-10T05:26:18;7.82;86.64
75281;HTU21D;63874;47.230;39.620;2023-05-10T05:28:44;7.84;86.59
75281;HTU21D;63874;47.230;39.620;2023-05-10T05:31:10;7.87;86.55
75281;HTU21D;63874;47.230;39.620;2023-05-10T05:33:36;7.85;86.51
75281;HTU21D;63874;47.230;39.620;2023-05-10T05:36:03;7.86;86.52
75281;HTU21D;63874;47.230;39.620;2023-05-10T05:38:29;7.91;86.49
75281;HTU21D;63874;47.230;39.620;2023-05-10T05:40:55;7.92;86.42
75281;HTU21D;63874;47.230;39.620;2023-05-10T05:43:21;7.93;86.41
75281;HTU21D;63874;47.230;39.620;2023-05-10T05:45:47;7.97;86.42
75281;HTU21D;63874;47.230;39.620;2023-05-10T05:48:13;7.99;86.38
75281;HTU21D;63874;47.230;39.620;2023-05-10T05:50:39;8.00;86.39
75281;HTU21D;63874;47.230;39.620;2023-05-10T05:53:05;8.04;86.36
75281;HTU21D;63874;47.230;39.620;2023-05-10T05:55:31;8.05;86.25
75281;HTU21D;63874;47.230;39.620;2023-05-10T05:57:57;8.01;86.26
75281;HTU21D;63874;47.230;39.620;2023-05-10T06:00:23;8.05;86.20
75281;HTU21D;63874;47.230;39.620;2023-05-10T06:02:49;8.05;86.09
75281;HTU21D;63874;47.230;39.620;2023-05-10T06:05:15;8.03;86.03
75281;HTU21D;63874;47.230;39.620;2023-05-10T06:07:41;8.01;86.11
75281;HTU21D;63874;47.230;39.620;2023-05-10T06:10:09;8.04;86.19
75281;HTU21D;63874;47.230;39.620;2023-05-10T06:12:35;8.05;86.21
75281;HTU21D;63874;47.230;39.620;2023-05-10T06:15:02;8.05;86.36
75281;HTU21D;63874;47.230;39.620;2023-05-10T06:17:28;8.07;86.30
75281;HTU21D;63874;47.230;39.620;2023-05-10T06:19:54;8.11;86.37
75281;HTU21D;63874;47.230;39.620;2023-05-10T06:22:20;8.15;86.42
75281;HTU21D;63874;47.230;39.620;2023-05-10T06:24:48;8.20;86.47
75281;HTU21D;63874;47.230;39.620;2023-05-10T06:27:15;8.24;86.34
75281;HTU21D;63874;47.230;39.620;2023-05-10T06:29:41;8.27;86.42
75281;HTU21D;63874;47.230;39.620;2023-05-10T06:32:06;8.23;86.41
75281;HTU21D;63874;47.230;39.620;2023-05-10T06:34:32;8.27;86.45
75281;HTU21D;63874;47.230;39.620;2023-05-10T06:36:58;8.29;86.42
75281;HTU21D;63874;47.230;39.620;2023-05-10T06:39:24;8.31;86.45
75281;HTU21D;63874;47.230;39.620;2023-05-10T06:41:50;8.33;86.40
75281;HTU21D;63874;47.230;39.620;2023-05-10T06:44:15;8.35;86.38
75281;HTU21D;63874;47.230;39.620;2023-05-10T06:46:41;8.35;86.45
75281;HTU21D;63874;47.230;39.620;2023-05-10T06:49:07;8.34;86.37
75281;HTU21D;63874;47.230;39.620;2023-05-10T06:51:33;8.36;86.38
75281;HTU21D;63874;47.230;39.620;2023-05-10T06:53:59;8.38;86.40
75281;HTU21D;63874;47.230;39.620;2023-05-10T06:56:25;8.44;86.41
75281;HTU21D;63874;47.230;39.620;2023-05-10T06:58:51;8.51;86.38
75281;HTU21D;63874;47.230;39.620;2023-05-10T07:01:17;8.56;86.29
75281;HTU21D;63874;47.230;39.620;2023-05-10T07:03:43;8.57;86.19
75281;HTU21D;63874;47.230;39.620;2023-05-10T07:06:08;8.60;86.16
75281;HTU21D;63874;47.230;39.620;2023-05-10T07:08:34;8.57;86.06
75281;HTU21D;63874;47.230;39.620;2023-05-10T07:11:04;8.62;86.12
75281;HTU21D;63874;47.230;39.620;2023-05-10T07:13:31;8.62;86.06
75281;HTU21D;63874;47.230;39.620;2023-05-10T07:15:58;8.64;86.12
75281;HTU21D;63874;47.230;39.620;2023-05-10T07:18:24;8.71;86.12
75281;HTU21D;63874;47.230;39.620;2023-05-10T07:20:50;8.78;86.10
75281;HTU21D;63874;47.230;39.620;2023-05-10T07:23:16;8.82;85.93
75281;HTU21D;63874;47.230;39.620;2023-05-10T07:25:50;8.87;85.68
75281;HTU21D;63874;47.230;39.620;2023-05-10T07:28:17;8.83;85.63
75281;HTU21D;63874;47.230;39.620;2023-05-10T07:30:44;8.86;85.57
75281;HTU21D;63874;47.230;39.620;2023-05-10T07:33:12;8.92;85.58
75281;HTU21D;63874;47.230;39.620;2023-05-10T07:35:38;8.97;85.08
75281;HTU21D;63874;47.230;39.620;2023-05-10T07:38:04;9.03;84.86
75281;HTU21D;63874;47.230;39.620;2023-05-10T07:40:31;9.07;84.55
75281;HTU21D;63874;47.230;39.620;2023-05-10T07:42:57;9.09;84.43
75281;HTU21D;63874;47.230;39.620;2023-05-10T07:45:23;9.14;84.22
75281;HTU21D;63874;47.230;39.620;2023-05-10T07:47:49;9.20;84.20
75281;HTU21D;63874;47.230;39.620;2023-05-10T07:50:15;9.21;83.93
75281;HTU21D;63874;47.230;39.620;2023-05-10T07:52:41;9.23;83.82
75281;HTU21D;63874;47.230;39.620;2023-05-10T07:55:07;9.21;83.90
75281;HTU21D;63874;47.230;39.620;2023-05-10T07:57:34;9.20;84.00
75281;HTU21D;63874;47.230;39.620;2023-05-10T08:00:00;9.18;84.03
75281;HTU21D;63874;47.230;39.620;2023-05-10T08:02:26;9.16;83.88
75281;HTU21D;63874;47.230;39.620;2023-05-10T08:04:52;9.12;83.85
75281;HTU21D;63874;47.230;39.620;2023-05-10T08:07:18;9.07;83.84
75281;HTU21D;63874;47.230;39.620;2023-05-10T08:09:44;9.06;84.06
75281;HTU21D;63874;47.230;39.620;2023-05-10T08:12:10;9.10;84.09
75281;HTU21D;63874;47.230;39.620;2023-05-10T08:14:35;9.15;84.04
75281;HTU21D;63874;47.230;39.620;2023-05-10T08:17:04;9.20;83.88
75281;HTU21D;63874;47.230;39.620;2023-05-10T08:19:30;9.27;83.74
75281;HTU21D;63874;47.230;39.620;2023-05-10T08:21:56;9.34;83.50
75281;HTU21D;63874;47.230;39.620;2023-05-10T08:24:22;9.37;83.43
75281;HTU21D;63874;47.230;39.620;2023-05-10T08:26:48;9.41;83.13
75281;HTU21D;63874;47.230;39.620;2023-05-10T08:29:14;9.40;83.04
75281;HTU21D;63874;47.230;39.620;2023-05-10T08:31:40;9.42;82.94
75281;HTU21D;63874;47.230;39.620;2023-05-10T08:34:06;9.46;82.97
75281;HTU21D;63874;47.230;39.620;2023-05-10T08:36:32;9.52;83.07
75281;HTU21D;63874;47.230;39.620;2023-05-10T08:38:58;9.63;82.83
75281;HTU21D;63874;47.230;39.620;2023-05-10T08:41:24;9.74;82.53
75281;HTU21D;63874;47.230;39.620;2023-05-10T08:43:54;9.81;81.97
75281;HTU21D;63874;47.230;39.620;2023-05-10T08:46:22;9.85;81.81
75281;HTU21D;63874;47.230;39.620;2023-05-10T08:48:50;9.89;81.59
75281;HTU21D;63874;47.230;39.620;2023-05-10T08:51:23;9.97;81.43
75281;HTU21D;63874;47.230;39.620;2023-05-10T08:53:52;10.08;81.10
75281;HTU21D;63874;47.230;39.620;2023-05-10T08:56:18;10.16;80.78
75281;HTU21D;63874;47.230;39.620;2023-05-10T08:58:45;10.19;80.71
75281;HTU21D;63874;47.230;39.620;2023-05-10T09:01:12;10.31;80.72
75281;HTU21D;63874;47.230;39.620;2023-05-10T09:03:39;10.39;80.27
75281;HTU21D;63874;47.230;39.620;2023-05-10T09:06:05;10.41;80.47
75281;HTU21D;63874;47.230;39.620;2023-05-10T09:08:33;10.52;80.18
75281;HTU21D;63874;47.230;39.620;2023-05-10T09:11:00;10.55;79.92
75281;HTU21D;63874;47.230;39.620;2023-05-10T09:13:27;10.55;79.37
75281;HTU21D;63874;47.230;39.620;2023-05-10T09:15:53;10.50;79.40
75281;HTU21D;63874;47.230;39.620;2023-05-10T09:18:19;10.48;79.35
75281;HTU21D;63874;47.230;39.620;2023-05-10T09:20:45;10.48;79.44
75281;HTU21D;63874;47.230;39.620;2023-05-10T09:23:11;10.48;79.18
75281;HTU21D;63874;47.230;39.620;2023-05-10T09:25:38;10.46;79.10
75281;HTU21D;63874;47.230;39.620;2023-05-10T09:28:06;10.46;78.83
75281;HTU21D;63874;47.230;39.620;2023-05-10T09:30:33;10.36;78.96
75281;HTU21D;63874;47.230;39.620;2023-05-10T09:33:00;10.38;79.18
75281;HTU21D;63874;47.230;39.620;2023-05-10T09:35:28;10.42;79.11
75281;HTU21D;63874;47.230;39.620;2023-05-10T09:37:57;10.41;78.52
75281;HTU21D;63874;47.230;39.620;2023-05-10T09:40:24;10.37;78.41
75281;HTU21D;63874;47.230;39.620;2023-05-10T09:43:02;10.31;78.56
75281;HTU21D;63874;47.230;39.620;2023-05-10T09:45:34;10.28;78.69
75281;HTU21D;63874;47.230;39.620;2023-05-10T09:48:01;10.26;78.85
75281;HTU21D;63874;47.230;39.620;2023-05-10T09:50:28;10.30;78.69
75281;HTU21D;63874;47.230;39.620;2023-05-10T09:52:57;10.40;78.72
75281;HTU21D;63874;47.230;39.620;2023-05-10T09:58:03;10.45;78.47
75281;HTU21D;63874;47.230;39.620;2023-05-10T10:00:39;10.49;78.27
75281;HTU21D;63874;47.230;39.620;2023-05-10T10:03:05;10.50;78.17
75281;HTU21D;63874;47.230;39.620;2023-05-10T10:05:33;10.48;77.93
75281;HTU21D;63874;47.230;39.620;2023-05-10T10:08:00;10.40;78.05
75281;HTU21D;63874;47.230;39.620;2023-05-10T10:10:27;10.30;78.26
75281;HTU21D;63874;47.230;39.620;2023-05-10T10:12:54;10.24;78.47
75281;HTU21D;63874;47.230;39.620;2023-05-10T10:15:23;10.15;78.85
75281;HTU21D;63874;47.230;39.620;2023-05-10T10:17:50;10.15;79.12
75281;HTU21D;63874;47.230;39.620;2023-05-10T10:20:18;10.22;79.27
75281;HTU21D;63874;47.230;39.620;2023-05-10T10:22:44;10.26;79.09
75281;HTU21D;63874;47.230;39.620;2023-05-10T10:25:11;10.20;78.95
75281;HTU21D;63874;47.230;39.620;2023-05-10T10:35:52;10.18;79.11
75281;HTU21D;63874;47.230;39.620;2023-05-10T10:38:18;10.21;79.10
75281;HTU21D;63874;47.230;39.620;2023-05-10T10:40:44;10.25;78.90
75281;HTU21D;63874;47.230;39.620;2023-05-10T10:43:24;10.20;78.72
75281;HTU21D;63874;47.230;39.620;2023-05-10T10:48:34;10.18;78.78
75281;HTU21D;63874;47.230;39.620;2023-05-10T10:51:00;10.18;78.88
75281;HTU21D;63874;47.230;39.620;2023-05-10T10:53:27;10.16;78.87
75281;HTU21D;63874;47.230;39.620;2023-05-10T10:56:08;10.18;78.77
75281;HTU21D;63874;47.230;39.620;2023-05-10T10:58:36;10.20;78.73
75281;HTU21D;63874;47.230;39.620;2023-05-10T11:01:16;10.23;78.96
75281;HTU21D;63874;47.230;39.620;2023-05-10T11:06:41;10.34;78.47
75281;HTU21D;63874;47.230;39.620;2023-05-10T11:09:09;10.29;78.40
75281;HTU21D;63874;47.230;39.620;2023-05-10T11:11:48;10.29;78.50
75281;HTU21D;63874;47.230;39.620;2023-05-10T11:14:14;10.31;78.74
75281;HTU21D;63874;47.230;39.620;2023-05-10T11:16:45;10.38;78.64
75281;HTU21D;63874;47.230;39.620;2023-05-10T11:19:12;10.43;78.24
75281;HTU21D;63874;47.230;39.620;2023-05-10T11:24:19;10.53;77.77
75281;HTU21D;63874;47.230;39.620;2023-05-10T11:26:45;10.49;77.69
75281;HTU21D;63874;47.230;39.620;2023-05-10T11:29:13;10.52;77.82
75281;HTU21D;63874;47.230;39.620;2023-05-10T11:31:43;10.55;77.40
75281;HTU21D;63874;47.230;39.620;2023-05-10T11:34:11;10.51;76.92
75281;HTU21D;63874;47.230;39.620;2023-05-10T11:36:37;10.49;76.95
75281;HTU21D;63874;47.230;39.620;2023-05-10T11:39:04;10.53;77.07
75281;HTU21D;63874;47.230;39.620;2023-05-10T11:41:31;10.60;76.53
75281;HTU21D;63874;47.230;39.620;2023-05-10T11:43:58;10.62;76.04
75281;HTU21D;63874;47.230;39.620;2023-05-10T11:46:26;10.56;76.25
75281;HTU21D;63874;47.230;39.620;2023-05-10T11:48:59;10.57;76.43
75281;HTU21D;63874;47.230;39.620;2023-05-10T11:51:36;10.68;76.49
75281;HTU21D;63874;47.230;39.620;2023-05-10T11:54:08;10.88;75.55
75281;HTU21D;63874;47.230;39.620;2023-05-10T11:56:35;10.98;75.37
75281;HTU21D;63874;47.230;39.620;2023-05-10T11:59:01;11.09;74.70
75281;HTU21D;63874;47.230;39.620;2023-05-10T12:01:29;11.14;74.39
75281;HTU21D;63874;47.230;39.620;2023-05-10T12:03:57;11.20;73.98
75281;HTU21D;63874;47.230;39.620;2023-05-10T12:06:32;11.26;74.18
75281;HTU21D;63874;47.230;39.620;2023-05-10T12:09:05;11.30;73.77
75281;HTU21D;63874;47.230;39.620;2023-05-10T12:11:31;11.29;74.27
75281;HTU21D;63874;47.230;39.620;2023-05-10T12:13:57;11.22;74.30
75281;HTU21D;63874;47.230;39.620;2023-05-10T12:16:25;11.16;74.33
75281;HTU21D;63874;47.230;39.620;2023-05-10T12:18:56;11.18;74.09
75281;HTU21D;63874;47.230;39.620;2023-05-10T12:21:22;11.24;73.90
75281;HTU21D;63874;47.230;39.620;2023-05-10T12:23:51;11.31;73.70
75281;HTU21D;63874;47.230;39.620;2023-05-10T12:26:17;11.33;73.71
75281;HTU21D;63874;47.230;39.620;2023-05-10T12:28:43;11.37;73.66
75281;HTU21D;63874;47.230;39.620;2023-05-10T12:31:09;11.33;72.59
75281;HTU21D;63874;47.230;39.620;2023-05-10T12:33:41;11.29;72.83
75281;HTU21D;63874;47.230;39.620;2023-05-10T12:36:14;11.33;72.63
75281;HTU21D;63874;47.230;39.620;2023-05-10T12:38:42;11.41;73.06
75281;HTU21D;63874;47.230;39.620;2023-05-10T12:41:15;11.45;72.64
75281;HTU21D;63874;47.230;39.620;2023-05-10T12:43:42;11.43;72.87
75281;HTU21D;63874;47.230;39.620;2023-05-10T12:46:13;11.34;72.64
75281;HTU21D;63874;47.230;39.620;2023-05-10T12:48:41;11.23;72.85
75281;HTU21D;63874;47.230;39.620;2023-05-10T12:51:07;11.12;73.04
75281;HTU21D;63874;47.230;39.620;2023-05-10T12:53:39;10.98;73.26
75281;HTU21D;63874;47.230;39.620;2023-05-10T12:56:05;10.93;73.44
75281;HTU21D;63874;47.230;39.620;2023-05-10T12:58:31;10.85;73.44
75281;HTU21D;63874;47.230;39.620;2023-05-10T13:00:58;10.80;73.48
75281;HTU21D;63874;47.230;39.620;2023-05-10T13:03:24;10.77;73.63
75281;HTU21D;63874;47.230;39.620;2023-05-10T13:05:50;10.82;73.85
75281;HTU21D;63874;47.230;39.620;2023-05-10T13:08:16;10.95;73.56
75281;HTU21D;63874;47.230;39.620;2023-05-10T13:10:42;11.01;73.53
75281;HTU21D;63874;47.230;39.620;2023-05-10T13:13:08;11.04;73.54
75281;HTU21D;63874;47.230;39.620;2023-05-10T13:15:34;11.00;73.51
75281;HTU21D;63874;47.230;39.620;2023-05-10T13:18:00;10.97;73.37
75281;HTU21D;63874;47.230;39.620;2023-05-10T13:20:26;10.90;73.09
75281;HTU21D;63874;47.230;39.620;2023-05-10T13:22:53;10.85;73.15
75281;HTU21D;63874;47.230;39.620;2023-05-10T13:25:19;10.75;73.35
75281;HTU21D;63874;47.230;39.620;2023-05-10T13:27:45;10.75;73.12
75281;HTU21D;63874;47.230;39.620;2023-05-10T13:30:11;10.73;73.01
75281;HTU21D;63874;47.230;39.620;2023-05-10T13:32:37;10.70;73.13
75281;HTU21D;63874;47.230;39.620;2023-05-10T13:35:04;10.67;73.24
75281;HTU21D;63874;47.230;39.620;2023-05-10T13:37:31;10.64;73.48
75281;HTU21D;63874;47.230;39.620;2023-05-10T13:39:57;10.64;73.44
75281;HTU21D;63874;47.230;39.620;2023-05-10T13:42:23;10.65;73.41
75281;HTU21D;63874;47.230;39.620;2023-05-10T13:44:50;10.58;73.38
75281;HTU21D;63874;47.230;39.620;2023-05-10T13:47:16;10.50;73.18
75281;HTU21D;63874;47.230;39.620;2023-05-10T13:49:42;10.37;73.58
75281;HTU21D;63874;47.230;39.620;2023-05-10T13:52:08;10.34;73.80
75281;HTU21D;63874;47.230;39.620;2023-05-10T13:54:38;10.33;74.08
75281;HTU21D;63874;47.230;39.620;2023-05-10T13:57:05;10.30;74.31
75281;HTU21D;63874;47.230;39.620;2023-05-10T13:59:30;10.25;74.57
75281;HTU21D;63874;47.230;39.620;2023-05-10T14:01:59;10.15;75.01
75281;HTU21D;63874;47.230;39.620;2023-05-10T14:04:28;10.10;75.14
75281;HTU21D;63874;47.230;39.620;2023-05-10T14:06:54;10.06;75.28
75281;HTU21D;63874;47.230;39.620;2023-05-10T14:09:20;9.96;75.56
75281;HTU21D;63874;47.230;39.620;2023-05-10T14:11:46;9.96;76.04
75281;HTU21D;63874;47.230;39.620;2023-05-10T14:14:12;9.90;76.18
75281;HTU21D;63874;47.230;39.620;2023-05-10T14:16:42;9.85;76.34
75281;HTU21D;63874;47.230;39.620;2023-05-10T14:19:09;9.88;76.62
75281;HTU21D;63874;47.230;39.620;2023-05-10T14:21:35;9.85;76.69
75281;HTU21D;63874;47.230;39.620;2023-05-10T14:24:01;9.84;76.69
75281;HTU21D;63874;47.230;39.620;2023-05-10T14:26:27;9.83;76.77
75281;HTU21D;63874;47.230;39.620;2023-05-10T14:28:53;9.83;76.65
75281;HTU21D;63874;47.230;39.620;2023-05-10T14:31:19;9.84;76.62
75281;HTU21D;63874;47.230;39.620;2023-05-10T14:33:50;9.80;76.69
75281;HTU21D;63874;47.230;39.620;2023-05-10T14:36:15;9.79;76.78
75281;HTU21D;63874;47.230;39.620;2023-05-10T14:38:41;9.80;76.98
75281;HTU21D;63874;47.230;39.620;2023-05-10T14:41:07;9.81;76.90
75281;HTU21D;63874;47.230;39.620;2023-05-10T14:43:33;9.82;76.92
75281;HTU21D;63874;47.230;39.620;2023-05-10T14:45:59;9.82;76.96
75281;HTU21D;63874;47.230;39.620;2023-05-10T14:48:25;9.83;77.00
75281;HTU21D;63874;47.230;39.620;2023-05-10T14:50:51;9.89;77.05
75281;HTU21D;63874;47.230;39.620;2023-05-10T14:53:18;9.91;76.99
75281;HTU21D;63874;47.230;39.620;2023-05-10T14:55:44;9.91;76.90
75281;HTU21D;63874;47.230;39.620;2023-05-10T14:58:10;9.89;76.85
75281;HTU21D;63874;47.230;39.620;2023-05-10T15:00:36;9.89;76.86
75281;HTU21D;63874;47.230;39.620;2023-05-10T15:03:02;9.91;76.72
75281;HTU21D;63874;47.230;39.620;2023-05-10T15:05:28;9.86;76.70
75281;HTU21D;63874;47.230;39.620;2023-05-10T15:07:54;9.86;76.73
75281;HTU21D;63874;47.230;39.620;2023-05-10T15:10:20;9.85;76.75
75281;HTU21D;63874;47.230;39.620;2023-05-10T15:12:49;9.86;76.66
75281;HTU21D;63874;47.230;39.620;2023-05-10T15:15:15;9.85;76.76
75281;HTU21D;63874;47.230;39.620;2023-05-10T15:17:41;9.85;76.84
75281;HTU21D;63874;47.230;39.620;2023-05-10T15:20:07;9.86;76.88
75281;HTU21D;63874;47.230;39.620;2023-05-10T15:22:33;9.86;76.91
75281;HTU21D;63874;47.230;39.620;2023-05-10T15:24:59;9.85;77.02
75281;HTU21D;63874;47.230;39.620;2023-05-10T15:27:25;9.85;76.95
75281;HTU21D;63874;47.230;39.620;2023-05-10T15:29:52;9.81;77.00
75281;HTU21D;63874;47.230;39.620;2023-05-10T15:32:18;9.83;76.91
75281;HTU21D;63874;47.230;39.620;2023-05-10T15:34:44;9.78;76.96
75281;HTU21D;63874;47.230;39.620;2023-05-10T15:37:10;9.78;76.99
75281;HTU21D;63874;47.230;39.620;2023-05-10T15:39:36;9.77;76.92
75281;HTU21D;63874;47.230;39.620;2023-05-10T15:42:01;9.78;76.84
75281;HTU21D;63874;47.230;39.620;2023-05-10T15:44:28;9.76;76.74
75281;HTU21D;63874;47.230;39.620;2023-05-10T15:46:54;9.72;76.78
75281;HTU21D;63874;47.230;39.620;2023-05-10T15:49:20;9.74;76.70